Toronto Pearson, Ontario

1:24 PM EDT on April 01, 2015 (GMT -0400)
Toronto-Pearson International | | Change Station
CLOSE
Current Station
Airport
Location: Toronto Pearson,
Elevation: 568 ft
Nearby Weather Stations

Elev 568 ft 43.68 °N, 79.63 °W | Updated 24 minutes ago

Clear
Clear
39 °F
Feels Like 34 °F
N
8
Wind Variable Wind from SSE

Today is forecast to be nearly the same temperature as yesterday.

Today
High -- | Low -- °F
--% Chance of Precip.
Yesterday
High -- | Low -- °F
Precip. -- in
7:00 AM 7:45 PM
Waxing Gibbous, 93% visible
Pressure 30.20 in
Visibility 15.0 miles
Clouds Clear
Windchill 34 °F
Dew Point 7 °F
Humidity 26%
Rainfall 0.00 in
Snow Depth Not available.
UV 8 out of 12
Pollen Not available.
Air Quality Not available.
Flu Activity Not available.
METAR CYYZ 011700Z 15007KT 120V190 15SM SKC 04/M14 A3017 RMK SLP225

More Conditions Fewer Conditions

Pressure 30.20 in
Visibility 15.0 miles
Clouds Clear
Windchill 34 °F
Dew Point 7 °F
Humidity 26%
Rainfall 0.00 in
Snow Depth Not available.
UV 8 out of 12
Pollen Not available.
Air Quality Not available.
Flu Activity Not available.
METAR CYYZ 011700Z 15007KT 120V190 15SM SKC 04/M14 A3017 RMK SLP225

More Conditions Fewer Conditions

10-Day Weather Forecast

Almanac

Astronomy

Apr. 01, 2015 Rise Set
Actual Time
Civil Twilight
Nautical Twilight
Astronomical Twilight
Moon
Length of Visible Light
Length of Day
Tomorrow will be .
, % of the Moon is Illuminated

Today's Extremes

Country Highs Country Lows

Community

WunderPhotos

Upload Photos

1,810,011 photos uploaded!

WunderBlogs® & News

Nearby

Air Quality

  Air Quality AQ Index Pollutant
Not available.

Snow Depth

Station Depth Elevation

Earthquake Activity

City Distance Mag. Time & Date
Minimum magnitude displayed is 2.5.

Coastal Water Temperatures

Place Temperature

Stations

Nearby Weather Stations

Station Location Temp. Windchill Dew Point Humidity Wind Precip. Elev Updated Type